• Join FlightAware (Why Join?)
  • Login
  • US Flag 
Gobble Gobble! 
07:33PM EST


 

Airport Tracker/Info


-or-


 

Live Flight TrackerFlight Track Log ✈ UAL4115 ✈ 20-Jul-2013 ✈ MMGL / GDL - KIAH

Flight Track Log - Related Links

Times and Time Zones

All times are in EDT time to prevent confusion due to time zone crossing. See the UAL4115 flight status page for this flight to view local times or setup timezone preferences in your user account.

Time Position Orientation Groundspeed Altitude Reporting Facility
EDT Latitude Longitude Course Direction KTS MPH feet Rate Location/Type
07:31AM 20.7652 -103.2339 21° North  Level FlightAware Approximate
07:32AM 20.8542 -103.2208 17° North  Level FlightAware Approximate
07:33AM 20.9416 -103.1945 12° North  Level FlightAware Approximate
07:34AM 21.0305 -103.1747 12° North  Level FlightAware Approximate
07:35AM 21.1182 -103.1495 16° North  Level FlightAware Approximate
07:36AM 21.2055 -103.1227 16° North  Level FlightAware Approximate
07:37AM 21.2929 -103.0958 16° North  Level FlightAware Approximate
07:38AM 21.3808 -103.0715 13° North  Level FlightAware Approximate
07:39AM 21.4693 -103.0493 13° North  Level FlightAware Approximate
07:40AM 21.5577 -103.0267 14° North  Level FlightAware Approximate
07:41AM 21.6458 -103.0027 14° North  Level FlightAware Approximate
07:42AM 21.7342 -102.9802 10° North  Level FlightAware Approximate
07:43AM 21.8237 -102.9639 10° North  Level FlightAware Approximate
07:44AM 21.9123 -102.9439 25° Northeast  Level FlightAware Approximate
07:45AM 21.9987 -102.9147 15° North  Level FlightAware Approximate
07:46AM 22.0866 -102.8896 15° North  Level FlightAware Approximate
07:47AM 22.1745 -102.8651 10° North  Level FlightAware Approximate
07:48AM 22.2635 -102.8455 17° North  Level FlightAware Approximate
07:49AM 22.3520 -102.8247 North  Level FlightAware Approximate
07:50AM 22.4409 -102.8047 15° North  Level FlightAware Approximate
07:51AM 22.5285 -102.7789 15° North  Level FlightAware Approximate
07:52AM 22.6162 -102.7531 15° North  Level FlightAware Approximate
07:53AM 22.7040 -102.7274 15° North  Level FlightAware Approximate
07:54AM 22.7918 -102.7023 15° North  Level FlightAware Approximate
07:55AM 22.8810 -102.6838 10° North  Level FlightAware Approximate
07:56AM 22.9597 -102.6348 30° Northeast  Level FlightAware Approximate
07:57AM 23.0381 -102.5849 30° Northeast  Level FlightAware Approximate
07:58AM 23.1160 -102.5340 31° Northeast  Level FlightAware Approximate
07:59AM 23.1935 -102.4824 31° Northeast  Level FlightAware Approximate
08:00AM 23.2710 -102.4308 31° Northeast  Level FlightAware Approximate
08:01AM 23.3485 -102.3792 31° Northeast  Level FlightAware Approximate
08:02AM 23.4260 -102.3275 31° Northeast  Level FlightAware Approximate
08:03AM 23.5035 -102.2757 31° Northeast  Level FlightAware Approximate
08:04AM 23.5809 -102.2239 32° Northeast  Level FlightAware Approximate
08:05AM 23.6587 -102.1727 31° Northeast  Level FlightAware Approximate
08:06AM 23.7367 -102.1218 31° Northeast  Level FlightAware Approximate
08:07AM 23.8148 -102.0710 31° Northeast  Level FlightAware Approximate
08:08AM 23.8928 -102.0200 31° Northeast  Level FlightAware Approximate
08:09AM 23.9708 -101.9690 31° Northeast  Level FlightAware Approximate
08:10AM 24.0487 -101.9180 31° Northeast  Level FlightAware Approximate
08:11AM 24.1267 -101.8668 31° Northeast  Level FlightAware Approximate
08:12AM 24.2046 -101.8156 31° Northeast  Level FlightAware Approximate
08:13AM 24.2826 -101.7644 31° Northeast  Level FlightAware Approximate
08:14AM 24.3605 -101.7131 31° Northeast  Level FlightAware Approximate
08:15AM 24.4384 -101.6617 31° Northeast  Level FlightAware Approximate
08:16AM 24.5162 -101.6103 31° Northeast  Level FlightAware Approximate
08:17AM 24.5941 -101.5587 31° Northeast  Level FlightAware Approximate
08:18AM 24.6719 -101.5072 31° Northeast  Level FlightAware Approximate
08:19AM 24.7497 -101.4556 31° Northeast  Level FlightAware Approximate
08:20AM 24.8275 -101.4038 31° Northeast  Level FlightAware Approximate
08:21AM 24.9047 -101.3510 32° Northeast  Level FlightAware Approximate
08:22AM 24.9818 -101.2980 32° Northeast  Level FlightAware Approximate
08:23AM 25.0590 -101.2449 32° Northeast  Level FlightAware Approximate
08:24AM 25.1360 -101.1918 32° Northeast  Level FlightAware Approximate
08:25AM 25.2131 -101.1386 32° Northeast  Level FlightAware Approximate
08:26AM 25.2901 -101.0854 32° Northeast  Level FlightAware Approximate
08:27AM 25.3671 -101.0320 32° Northeast  Level FlightAware Approximate
08:28AM 25.4442 -100.9786 32° Northeast  Level FlightAware Approximate
08:29AM 25.5211 -100.9251 32° Northeast  Level FlightAware Approximate
08:30AM 25.5566 -100.8360 72° East  Level FlightAware Approximate
08:31AM 25.5843 -100.7400 72° East  Level FlightAware Approximate
08:32AM 25.6118 -100.6440 72° East  Level FlightAware Approximate
08:32AM 25.9278 -99.9131 73° East 447 514 37,000  Level Houston Center
08:33AM 25.6394 -100.5480 72° East  Level FlightAware Approximate
08:33AM 26.0114 -99.8125 47° Northeast 445 512 37,000  Level Houston Center
08:34AM 25.6668 -100.4519 72° East  Level FlightAware Approximate
08:34AM 26.0958 -99.7144 46° Northeast 443 510 37,000  Level Houston Center
08:35AM 25.6942 -100.3558 72° East  Level FlightAware Approximate
08:35AM 26.1878 -99.6250 41° Northeast 441 507 37,000  Level Houston Center
08:36AM 25.7215 -100.2596 72° East  Level FlightAware Approximate
08:36AM 26.2797 -99.5381 40° Northeast 436 502 37,000  Level Houston Center
08:37AM 25.7488 -100.1634 73° East  Level FlightAware Approximate
08:37AM 26.3706 -99.4472 42° Northeast 437 503 37,000  Level Houston Center
08:38AM 26.4628 -99.3569 41° Northeast 440 506 37,000  Level Houston Center
08:39AM 26.5567 -99.2639 42° Northeast 447 514 37,000  Level Houston Center
08:40AM 26.6489 -99.1697 42° Northeast 450 518 37,000  Level Houston Center
08:41AM 26.7611 -99.0586 41° Northeast 451 519 37,000  Level Houston Center
08:42AM 26.8536 -98.9650 42° Northeast 450 518 37,000  Level Houston Center
08:43AM 26.9469 -98.8714 42° Northeast 452 520 37,000  Level Houston Center
08:44AM 27.0397 -98.7772 42° Northeast 452 520 37,000  Level Houston Center
08:45AM 27.1331 -98.6839 42° Northeast 453 521 37,000  Level Houston Center
08:46AM 27.2247 -98.5903 42° Northeast 452 520 37,000  Level Houston Center
08:47AM 27.3164 -98.4964 42° Northeast 451 519 37,000  Level Houston Center
08:48AM 27.4269 -98.3844 42° Northeast 449 517 37,000  Level Houston Center
08:49AM 27.5178 -98.2906 43° Northeast 448 516 37,000  Level Houston Center
08:50AM 27.6108 -98.1978 41° Northeast 448 516 37,000  Level Houston Center
08:51AM 27.7019 -98.1017 43° Northeast 450 518 37,000  Level Houston Center
08:52AM 27.7947 -98.0069 42° Northeast 451 519 37,000  Level Houston Center
08:53AM 27.8886 -97.9128 42° Northeast 452 520 37,000  Level Houston Center
08:54AM 27.9811 -97.8172 42° Northeast 452 520 37,000 -60 Level Houston Center
08:55AM 28.0769 -97.7183 42° Northeast 454 522 36,900  Descending Houston Center
08:56AM 28.1689 -97.6222 43° Northeast 451 519 37,000  Climbing Houston Center
08:57AM 28.2800 -97.5081 42° Northeast 449 517 37,000  Level Houston Center
08:58AM 28.3711 -97.4114 43° Northeast 448 516 37,000  Level Houston Center
08:59AM 28.4639 -97.3156 42° Northeast 450 518 37,000 -180 Level Houston Center
09:00AM 28.5553 -97.2197 43° Northeast 449 517 36,700 -1,320 Descending Houston Center
09:01AM 28.6486 -97.1217 43° Northeast 455 524 34,300 -2,520 Descending Houston Center
09:02AM 28.7408 -97.0244 43° Northeast 455 524 31,600 -2,820 Descending Houston Center
09:03AM 28.8358 -96.9261 42° Northeast 461 531 28,600 -2,880 Descending Houston Center
09:04AM 28.9300 -96.8247 43° Northeast 467 537 25,700 -2,940 Descending Houston Center
09:05AM 29.0394 -96.7086 43° Northeast 456 525 22,700 -2,760 Descending Houston Center
09:06AM 29.1281 -96.6147 43° Northeast 443 510 20,100 -2,640 Descending Houston Center
09:07AM 29.2133 -96.5250 43° Northeast 425 489 17,400 -2,760 Descending Houston Center
09:08AM 29.2958 -96.4353 43° Northeast 417 480 14,600 -2,820 Descending Houston Center
09:09AM 29.3439 -96.3856 42° Northeast 394 453 13,100 -2,640 Descending Houston Center
09:09AM 29.3747 -96.3522 43° Northeast 395 455 11,900 -2,760 Descending Houston Center
09:10AM 29.4206 -96.3006 44° Northeast 379 436 10,300 -1,980 Descending Houston Center
09:10AM 29.4494 -96.2697 43° Northeast 380 437 9,900 -300 Descending Houston Center
09:11AM 29.5181 -96.1978 42° Northeast 344 396 9,900  Level Houston Center
09:13AM 29.5828 -96.0928 55° Northeast 341 392 9,900  Level Houston Center
09:14AM 29.6314 -95.9972 60° Northeast 340 391 9,900 -360 Level Houston Center
09:15AM 29.6814 -95.9219 53° Northeast 300 345 9,200 -1,080 Descending Houston Center
09:16AM 29.7550 -95.8836 24° Northeast 290 334 7,700 -1,140 Descending Houston Center
09:17AM 29.8233 -95.8467 25° Northeast 271 312 6,900 -420 Descending Houston Center
09:18AM 29.8736 -95.8025 37° Northeast 232 267 6,900 -540 Level Houston Center
09:19AM 29.9144 -95.7406 53° Northeast 239 275 5,900 -1,080 Descending Houston Center
09:19AM 29.9331 -95.7014 61° Northeast 229 264 5,300 -1,080 Descending Houston Center
09:20AM 29.9628 -95.6328 63° Northeast 237 273 4,300 -1,020 Descending Houston Center
09:21AM 29.9744 -95.6083 61° Northeast 235 270 3,800 -1,020 Descending Houston Center
09:21AM 29.9903 -95.5669 66° East 233 268 3,300 -1,020 Descending Houston Center